Aransas Pass, Texas
Current Conditions -  °F | °C
As of 1:35 AM on Saturday 01 Nov 2014 (Local Time) from KTFP Reporting Station
Clear Clear  
Wind Chill: 63°   Ceiling: Unl
Heat Index: 63°   Visibility: 10mi
Dew Point: 47°   Wind: 10mph
Humidity: 54%   Direction: 40°NE
Pressure: 30.26"   Gusts: NA
Location:  27.9°N, 97.15°W
Report Text: KTFP 010635Z AUTO 04009KT 10SM CLR 17/08 A3026 RMK AO2 T01740081
Loading
Personal Weather Stations






























Interactive Weather Map
Tropical Storm Tracking
New forecast layout! Learn more

10-Day Weather Forecast

Advertisements
Track Severe Weather on mobile